QTR39C EDDF-OTHH
Flight info
| Callsign | QTR39C |
|---|---|
| Flight time | 5h 19m |
| Altitude | 31000 |
| Route | SULUS4L SULUS Z650 VEMUT/N0478F390 DCT ETVIS DCT BUDWA DCT BUDEX DCT ARSIN DCT BABIT DCT OSVIX DCT NISVA DCT USALI DCT OTKOK DCT RODIP DCT BELGI UT38 ATKAN/N0495F410 UT38 VESAR DCT NIKAS R785 RASLI P559 TRF R23 NEVOL N318 TAMRO DCT KINIB Z511 GISRA L681 ORLEK |
| Aircraft | A359/H-SDE2E3GHIJ3J4J5LM1ORWXY/LB1D1 |
Departure
| Time | 2026-05-03 23:56 |
|---|---|
| Airport | Frankfurt Main Airport (EDDF) |
Arrival
| Time | 2026-05-04 05:16 |
|---|---|
| Airport | Hamad International Airport (OTHH) |
| Time | Latitude | Longitude | Altitude | Speed | Heading |
|---|---|---|---|---|---|
| 2026-05-03 23:19 | 50.03144 | 8.57529 | 363 ft | 0 kts | 205° |
| 2026-05-03 23:43 | 50.03138 | 8.57524 | 363 ft | 4 kts | 205° |
| 2026-05-03 23:44 | 50.03112 | 8.57505 | 369 ft | 4 kts | 205° |
| 2026-05-03 23:44 | 50.03088 | 8.57487 | 370 ft | 4 kts | 205° |
| 2026-05-03 23:44 | 50.03095 | 8.57492 | 369 ft | 4 kts | 205° |
| 2026-05-03 23:44 | 50.03120 | 8.57510 | 370 ft | 4 kts | 205° |
| 2026-05-03 23:45 | 50.03144 | 8.57528 | 362 ft | 4 kts | 205° |
| 2026-05-03 23:45 | 50.03169 | 8.57545 | 369 ft | 4 kts | 205° |
| 2026-05-03 23:45 | 50.03193 | 8.57563 | 369 ft | 4 kts | 205° |
| 2026-05-03 23:45 | 50.03218 | 8.57580 | 368 ft | 4 kts | 205° |
| 2026-05-03 23:46 | 50.03242 | 8.57598 | 367 ft | 4 kts | 205° |
| 2026-05-03 23:46 | 50.03267 | 8.57616 | 367 ft | 4 kts | 205° |
| 2026-05-03 23:46 | 50.03291 | 8.57633 | 365 ft | 4 kts | 205° |
| 2026-05-03 23:46 | 50.03297 | 8.57637 | 365 ft | 4 kts | 205° |
| 2026-05-03 23:47 | 50.03292 | 8.57633 | 365 ft | 0 kts | 205° |
| 2026-05-03 23:48 | 50.03281 | 8.57624 | 367 ft | 6 kts | 210° |
| 2026-05-03 23:48 | 50.03257 | 8.57547 | 365 ft | 9 kts | 270° |
| 2026-05-03 23:49 | 50.03277 | 8.57438 | 366 ft | 11 kts | 294° |
| 2026-05-03 23:49 | 50.03312 | 8.57318 | 367 ft | 13 kts | 295° |
| 2026-05-03 23:49 | 50.03350 | 8.57187 | 366 ft | 15 kts | 288° |
| 2026-05-03 23:49 | 50.03328 | 8.57006 | 365 ft | 20 kts | 245° |
| 2026-05-03 23:50 | 50.03274 | 8.56789 | 363 ft | 23 kts | 251° |
| 2026-05-03 23:50 | 50.03237 | 8.56628 | 359 ft | 25 kts | 250° |
| 2026-05-03 23:50 | 50.03157 | 8.56285 | 363 ft | 26 kts | 250° |
| 2026-05-03 23:50 | 50.03092 | 8.56013 | 356 ft | 28 kts | 249° |
| 2026-05-03 23:51 | 50.03023 | 8.55727 | 356 ft | 29 kts | 249° |
| 2026-05-03 23:51 | 50.02952 | 8.55435 | 357 ft | 29 kts | 249° |
| 2026-05-03 23:51 | 50.02884 | 8.55155 | 355 ft | 27 kts | 249° |
| 2026-05-03 23:51 | 50.02816 | 8.54869 | 357 ft | 29 kts | 249° |
| 2026-05-03 23:52 | 50.02747 | 8.54580 | 352 ft | 28 kts | 250° |
| 2026-05-03 23:52 | 50.02682 | 8.54298 | 355 ft | 26 kts | 253° |
| 2026-05-03 23:52 | 50.02630 | 8.54043 | 345 ft | 25 kts | 250° |
| 2026-05-03 23:52 | 50.02568 | 8.53776 | 351 ft | 27 kts | 250° |
| 2026-05-03 23:53 | 50.02504 | 8.53507 | 348 ft | 26 kts | 249° |
| 2026-05-03 23:53 | 50.02441 | 8.53249 | 347 ft | 25 kts | 250° |
| 2026-05-03 23:53 | 50.02413 | 8.53003 | 337 ft | 19 kts | 294° |
| 2026-05-03 23:53 | 50.02500 | 8.52839 | 352 ft | 19 kts | 330° |
| 2026-05-03 23:54 | 50.02631 | 8.52823 | 347 ft | 19 kts | 0° |
| 2026-05-03 23:54 | 50.02781 | 8.52824 | 347 ft | 24 kts | 0° |
| 2026-05-03 23:54 | 50.02952 | 8.52824 | 351 ft | 25 kts | 359° |
| 2026-05-03 23:54 | 50.03127 | 8.52821 | 342 ft | 26 kts | 359° |
| 2026-05-03 23:55 | 50.03310 | 8.52818 | 348 ft | 27 kts | 359° |
| 2026-05-03 23:55 | 50.03427 | 8.52752 | 351 ft | 14 kts | 282° |
| 2026-05-03 23:55 | 50.03406 | 8.52628 | 347 ft | 9 kts | 240° |
| 2026-05-03 23:55 | 50.03346 | 8.52598 | 345 ft | 16 kts | 181° |
| 2026-05-03 23:56 | 50.03030 | 8.52602 | 353 ft | 79 kts | 178° |
| 2026-05-03 23:56 | 50.02278 | 8.52603 | 348 ft | 136 kts | 180° |
| 2026-05-03 23:56 | 50.01217 | 8.52616 | 646 ft | 158 kts | 180° |
| 2026-05-03 23:56 | 50.00131 | 8.52637 | 1334 ft | 155 kts | 181° |
| 2026-05-03 23:57 | 49.99034 | 8.52682 | 1876 ft | 166 kts | 181° |
| 2026-05-03 23:57 | 49.97799 | 8.52779 | 2167 ft | 189 kts | 180° |
| 2026-05-03 23:57 | 49.96400 | 8.52891 | 2487 ft | 213 kts | 181° |
| 2026-05-03 23:57 | 49.94868 | 8.53008 | 3122 ft | 221 kts | 181° |
| 2026-05-03 23:58 | 49.93337 | 8.53123 | 3832 ft | 225 kts | 181° |
| 2026-05-03 23:58 | 49.91772 | 8.53236 | 4558 ft | 228 kts | 182° |
| 2026-05-03 23:58 | 49.90137 | 8.53658 | 4981 ft | 252 kts | 166° |
| 2026-05-03 23:58 | 49.88612 | 8.55216 | 5438 ft | 276 kts | 133° |
| 2026-05-03 23:59 | 49.87793 | 8.57935 | 6206 ft | 285 kts | 104° |
| 2026-05-03 23:59 | 49.87457 | 8.60986 | 6988 ft | 289 kts | 100° |
| 2026-05-03 23:59 | 49.87164 | 8.64086 | 7769 ft | 293 kts | 101° |
| 2026-05-03 23:59 | 49.86848 | 8.67234 | 8586 ft | 297 kts | 102° |
| 2026-05-04 00:00 | 49.86509 | 8.70412 | 9454 ft | 301 kts | 103° |
| 2026-05-04 00:00 | 49.86156 | 8.73629 | 10250 ft | 305 kts | 103° |
| 2026-05-04 00:00 | 49.85780 | 8.76959 | 10661 ft | 324 kts | 103° |
| 2026-05-04 00:00 | 49.85373 | 8.80505 | 11013 ft | 344 kts | 103° |
| 2026-05-04 00:01 | 49.84945 | 8.84250 | 11382 ft | 362 kts | 103° |
| 2026-05-04 00:01 | 49.84497 | 8.88164 | 11839 ft | 375 kts | 103° |
| 2026-05-04 00:01 | 49.84037 | 8.92184 | 12501 ft | 382 kts | 103° |
| 2026-05-04 00:01 | 49.83569 | 8.96257 | 13217 ft | 386 kts | 102° |
| 2026-05-04 00:02 | 49.83099 | 9.00323 | 13917 ft | 391 kts | 102° |
| 2026-05-04 00:02 | 49.82616 | 9.04486 | 14565 ft | 395 kts | 102° |
| 2026-05-04 00:02 | 49.82086 | 9.08682 | 15190 ft | 399 kts | 104° |
| 2026-05-04 00:02 | 49.81490 | 9.12908 | 15808 ft | 404 kts | 105° |
| 2026-05-04 00:03 | 49.80855 | 9.17222 | 16451 ft | 408 kts | 105° |
| 2026-05-04 00:03 | 49.80227 | 9.21464 | 17083 ft | 412 kts | 105° |
| 2026-05-04 00:03 | 49.79589 | 9.25798 | 17711 ft | 416 kts | 105° |
| 2026-05-04 00:03 | 49.78951 | 9.30187 | 18336 ft | 420 kts | 105° |
| 2026-05-04 00:04 | 49.78310 | 9.34625 | 18888 ft | 424 kts | 105° |
| 2026-05-04 00:04 | 49.77667 | 9.39099 | 19434 ft | 429 kts | 105° |
| 2026-05-04 00:04 | 49.77017 | 9.43627 | 20009 ft | 433 kts | 105° |
| 2026-05-04 00:04 | 49.76360 | 9.48194 | 20608 ft | 437 kts | 105° |
| 2026-05-04 00:05 | 49.75695 | 9.52798 | 21184 ft | 441 kts | 105° |
| 2026-05-04 00:05 | 49.75020 | 9.57453 | 21756 ft | 446 kts | 105° |
| 2026-05-04 00:05 | 49.74337 | 9.62147 | 22360 ft | 449 kts | 105° |
| 2026-05-04 00:05 | 49.73646 | 9.66875 | 22975 ft | 453 kts | 105° |
| 2026-05-04 00:06 | 49.72947 | 9.71648 | 23584 ft | 456 kts | 105° |
| 2026-05-04 00:06 | 49.72482 | 9.74819 | 23913 ft | 459 kts | 105° |
| 2026-05-04 00:06 | 49.71773 | 9.79636 | 24419 ft | 462 kts | 105° |
| 2026-05-04 00:06 | 49.71056 | 9.84490 | 24958 ft | 464 kts | 105° |
| 2026-05-04 00:07 | 49.70336 | 9.89357 | 25469 ft | 467 kts | 106° |
| 2026-05-04 00:07 | 49.69607 | 9.94265 | 25979 ft | 470 kts | 106° |
| 2026-05-04 00:07 | 49.68871 | 9.99199 | 26467 ft | 473 kts | 106° |
| 2026-05-04 00:07 | 49.68129 | 10.04157 | 26968 ft | 476 kts | 106° |
| 2026-05-04 00:08 | 49.67378 | 10.09157 | 27429 ft | 480 kts | 106° |
| 2026-05-04 00:08 | 49.66620 | 10.14189 | 27888 ft | 483 kts | 106° |
| 2026-05-04 00:08 | 49.65854 | 10.19259 | 28343 ft | 487 kts | 106° |
| 2026-05-04 00:08 | 49.65081 | 10.24358 | 28781 ft | 491 kts | 107° |
| 2026-05-04 00:09 | 49.64299 | 10.29506 | 29213 ft | 494 kts | 107° |
| 2026-05-04 00:09 | 49.63510 | 10.34677 | 29621 ft | 498 kts | 107° |
| 2026-05-04 00:09 | 49.62711 | 10.39900 | 30015 ft | 501 kts | 107° |
| 2026-05-04 00:09 | 49.61906 | 10.45150 | 30357 ft | 504 kts | 107° |
| 2026-05-04 00:10 | 49.61094 | 10.50426 | 30704 ft | 507 kts | 107° |
| 2026-05-04 00:10 | 49.60277 | 10.55721 | 30974 ft | 510 kts | 107° |
| 2026-05-04 00:10 | 49.58633 | 10.66325 | 31042 ft | 508 kts | 107° |
| 2026-05-04 00:11 | 49.56980 | 10.76912 | 31046 ft | 508 kts | 107° |
| 2026-05-04 00:11 | 49.55318 | 10.87477 | 31050 ft | 507 kts | 107° |
| 2026-05-04 00:12 | 49.53649 | 10.98022 | 31048 ft | 506 kts | 107° |
| 2026-05-04 00:12 | 49.51969 | 11.08559 | 31379 ft | 509 kts | 107° |
| 2026-05-04 00:13 | 49.51132 | 11.13784 | 31750 ft | 509 kts | 107° |
| 2026-05-04 00:13 | 49.50274 | 11.19128 | 32177 ft | 508 kts | 107° |
| 2026-05-04 00:13 | 49.49435 | 11.24338 | 32647 ft | 506 kts | 107° |
| 2026-05-04 00:13 | 49.48588 | 11.29585 | 33105 ft | 505 kts | 107° |
| 2026-05-04 00:14 | 49.47741 | 11.34818 | 33543 ft | 504 kts | 107° |
| 2026-05-04 00:14 | 49.46890 | 11.40052 | 33949 ft | 503 kts | 107° |
| 2026-05-04 00:14 | 49.46041 | 11.45256 | 34299 ft | 502 kts | 107° |
| 2026-05-04 00:14 | 49.45189 | 11.50463 | 34600 ft | 502 kts | 107° |
| 2026-05-04 00:15 | 49.44335 | 11.55660 | 34880 ft | 502 kts | 107° |
| 2026-05-04 00:15 | 49.43480 | 11.60852 | 35203 ft | 501 kts | 107° |
| 2026-05-04 00:15 | 49.42624 | 11.66030 | 35513 ft | 500 kts | 107° |
| 2026-05-04 00:15 | 49.41766 | 11.71209 | 35821 ft | 500 kts | 107° |
| 2026-05-04 00:16 | 49.40909 | 11.76365 | 36110 ft | 499 kts | 107° |
| 2026-05-04 00:16 | 49.40047 | 11.81540 | 36417 ft | 499 kts | 107° |
| 2026-05-04 00:16 | 49.39185 | 11.86694 | 36706 ft | 498 kts | 107° |
| 2026-05-04 00:16 | 49.38323 | 11.91838 | 36983 ft | 497 kts | 107° |
| 2026-05-04 00:17 | 49.37459 | 11.96974 | 37274 ft | 497 kts | 106° |
| 2026-05-04 00:17 | 49.36596 | 12.02094 | 37550 ft | 496 kts | 106° |
| 2026-05-04 00:17 | 49.35729 | 12.07218 | 37798 ft | 496 kts | 106° |
| 2026-05-04 00:17 | 49.34860 | 12.12341 | 38044 ft | 496 kts | 106° |
| 2026-05-04 00:18 | 49.33990 | 12.17450 | 38282 ft | 495 kts | 106° |
| 2026-05-04 00:18 | 49.33117 | 12.22568 | 38500 ft | 495 kts | 106° |
| 2026-05-04 00:18 | 49.32244 | 12.27664 | 38722 ft | 495 kts | 107° |
| 2026-05-04 00:18 | 49.31368 | 12.32768 | 38892 ft | 495 kts | 107° |
| 2026-05-04 00:19 | 49.29603 | 12.42999 | 38991 ft | 497 kts | 107° |
| 2026-05-04 00:19 | 49.27831 | 12.53223 | 38991 ft | 497 kts | 107° |
| 2026-05-04 00:20 | 49.26059 | 12.63381 | 38991 ft | 497 kts | 107° |
| 2026-05-04 00:20 | 49.24269 | 12.73582 | 38988 ft | 497 kts | 107° |
| 2026-05-04 00:21 | 49.22465 | 12.83802 | 38990 ft | 497 kts | 107° |
| 2026-05-04 00:21 | 49.20656 | 12.94000 | 38992 ft | 497 kts | 107° |
| 2026-05-04 00:22 | 49.18837 | 13.04186 | 38993 ft | 496 kts | 107° |
| 2026-05-04 00:22 | 49.17012 | 13.14354 | 38990 ft | 495 kts | 107° |
| 2026-05-04 00:23 | 49.15182 | 13.24494 | 38994 ft | 495 kts | 107° |
| 2026-05-04 00:23 | 49.13347 | 13.34603 | 38989 ft | 494 kts | 107° |
| 2026-05-04 00:24 | 49.11503 | 13.44704 | 38989 ft | 493 kts | 107° |
| 2026-05-04 00:24 | 49.09657 | 13.54765 | 38987 ft | 492 kts | 107° |
| 2026-05-04 00:25 | 49.07803 | 13.64812 | 38985 ft | 491 kts | 107° |
| 2026-05-04 00:25 | 49.05945 | 13.74824 | 38986 ft | 490 kts | 107° |
| 2026-05-04 00:26 | 49.04082 | 13.84809 | 38978 ft | 489 kts | 107° |
| 2026-05-04 00:26 | 49.02213 | 13.94776 | 38980 ft | 489 kts | 107° |
| 2026-05-04 00:27 | 49.00336 | 14.04731 | 38975 ft | 488 kts | 107° |
| 2026-05-04 00:27 | 48.98454 | 14.14659 | 38982 ft | 488 kts | 107° |
| 2026-05-04 00:28 | 48.96577 | 14.24511 | 38980 ft | 487 kts | 107° |
| 2026-05-04 00:28 | 48.94098 | 14.34058 | 38988 ft | 484 kts | 121° |
| 2026-05-04 00:29 | 48.90251 | 14.42418 | 38989 ft | 483 kts | 130° |
| 2026-05-04 00:29 | 48.85923 | 14.50206 | 38985 ft | 483 kts | 132° |
| 2026-05-04 00:30 | 48.81534 | 14.57942 | 38984 ft | 484 kts | 131° |
| 2026-05-04 00:30 | 48.77186 | 14.65729 | 38985 ft | 484 kts | 131° |
| 2026-05-04 00:31 | 48.72855 | 14.73553 | 38984 ft | 484 kts | 131° |
| 2026-05-04 00:31 | 48.68524 | 14.81369 | 38988 ft | 485 kts | 131° |
| 2026-05-04 00:32 | 48.64180 | 14.89182 | 38995 ft | 485 kts | 131° |
| 2026-05-04 00:32 | 48.59828 | 14.96982 | 38999 ft | 486 kts | 131° |
| 2026-05-04 00:33 | 48.53279 | 15.08674 | 39002 ft | 486 kts | 131° |
| 2026-05-04 00:34 | 48.48897 | 15.16469 | 39005 ft | 487 kts | 131° |
| 2026-05-04 00:34 | 48.44544 | 15.24188 | 39003 ft | 487 kts | 131° |
| 2026-05-04 00:35 | 48.40146 | 15.31966 | 39001 ft | 488 kts | 131° |
| 2026-05-04 00:35 | 48.35736 | 15.39742 | 39003 ft | 488 kts | 131° |
| 2026-05-04 00:36 | 48.31317 | 15.47511 | 39004 ft | 489 kts | 131° |
| 2026-05-04 00:36 | 48.26892 | 15.55269 | 39002 ft | 489 kts | 131° |
| 2026-05-04 00:37 | 48.22455 | 15.63023 | 39004 ft | 489 kts | 131° |
| 2026-05-04 00:37 | 48.18046 | 15.70707 | 39007 ft | 489 kts | 131° |
| 2026-05-04 00:38 | 48.13596 | 15.78440 | 39013 ft | 490 kts | 131° |
| 2026-05-04 00:38 | 48.09139 | 15.86163 | 39015 ft | 491 kts | 131° |
| 2026-05-04 00:39 | 48.04669 | 15.93887 | 39018 ft | 491 kts | 131° |
| 2026-05-04 00:39 | 48.00192 | 16.01600 | 39018 ft | 491 kts | 131° |
| 2026-05-04 00:40 | 47.95714 | 16.09292 | 39025 ft | 491 kts | 131° |
| 2026-05-04 00:40 | 47.91224 | 16.16984 | 39029 ft | 491 kts | 131° |
| 2026-05-04 00:41 | 47.86763 | 16.24602 | 39033 ft | 491 kts | 131° |
| 2026-05-04 00:41 | 47.82270 | 16.32255 | 39037 ft | 491 kts | 131° |
| 2026-05-04 00:42 | 47.77764 | 16.39907 | 39045 ft | 492 kts | 131° |
| 2026-05-04 00:42 | 47.73249 | 16.47552 | 39049 ft | 492 kts | 131° |
| 2026-05-04 00:43 | 47.68716 | 16.55206 | 39056 ft | 493 kts | 131° |
| 2026-05-04 00:43 | 47.64179 | 16.62846 | 39062 ft | 493 kts | 131° |
| 2026-05-04 00:44 | 47.59664 | 16.70428 | 39068 ft | 493 kts | 131° |
| 2026-05-04 00:44 | 47.54918 | 16.77832 | 39074 ft | 492 kts | 136° |
| 2026-05-04 00:45 | 47.49984 | 16.84748 | 39076 ft | 492 kts | 136° |
| 2026-05-04 00:45 | 47.44946 | 16.91685 | 39084 ft | 492 kts | 136° |
| 2026-05-04 00:46 | 47.39970 | 16.98519 | 39090 ft | 492 kts | 136° |
| 2026-05-04 00:46 | 47.34945 | 17.05418 | 39091 ft | 492 kts | 136° |
| 2026-05-04 00:47 | 47.29920 | 17.12305 | 39101 ft | 493 kts | 136° |
| 2026-05-04 00:47 | 47.24887 | 17.19185 | 39098 ft | 493 kts | 136° |
| 2026-05-04 00:48 | 47.19883 | 17.26008 | 39104 ft | 493 kts | 136° |
| 2026-05-04 00:48 | 47.14812 | 17.32901 | 39100 ft | 494 kts | 136° |
| 2026-05-04 00:49 | 47.09793 | 17.39705 | 39109 ft | 494 kts | 136° |
| 2026-05-04 00:49 | 47.04727 | 17.46554 | 39116 ft | 494 kts | 136° |
| 2026-05-04 00:50 | 46.99667 | 17.53378 | 39118 ft | 495 kts | 136° |
| 2026-05-04 00:50 | 46.94596 | 17.60198 | 39119 ft | 495 kts | 136° |
| 2026-05-04 00:51 | 46.89512 | 17.67015 | 39117 ft | 495 kts | 136° |
| 2026-05-04 00:51 | 46.84428 | 17.73815 | 39123 ft | 496 kts | 136° |
| 2026-05-04 00:52 | 46.79333 | 17.80613 | 39121 ft | 496 kts | 136° |
| 2026-05-04 00:52 | 46.74225 | 17.87409 | 39132 ft | 497 kts | 136° |
| 2026-05-04 00:53 | 46.69110 | 17.94196 | 39135 ft | 498 kts | 136° |
| 2026-05-04 00:53 | 46.64015 | 18.00938 | 39135 ft | 498 kts | 136° |
| 2026-05-04 00:54 | 46.58882 | 18.07713 | 39120 ft | 498 kts | 136° |
| 2026-05-04 00:54 | 46.54606 | 18.13342 | 39124 ft | 499 kts | 136° |
| 2026-05-04 00:55 | 46.49455 | 18.20108 | 39127 ft | 499 kts | 136° |
| 2026-05-04 00:55 | 46.44296 | 18.26864 | 39130 ft | 500 kts | 136° |
| 2026-05-04 00:56 | 46.39121 | 18.33625 | 39149 ft | 500 kts | 136° |
| 2026-05-04 00:56 | 46.33946 | 18.40368 | 39135 ft | 500 kts | 136° |
| 2026-05-04 00:57 | 46.28767 | 18.47097 | 39139 ft | 501 kts | 136° |
| 2026-05-04 00:57 | 46.23579 | 18.53822 | 39145 ft | 501 kts | 136° |
| 2026-05-04 00:58 | 46.18419 | 18.60491 | 39146 ft | 501 kts | 136° |
| 2026-05-04 00:58 | 46.13214 | 18.67201 | 39147 ft | 501 kts | 136° |
| 2026-05-04 00:59 | 46.08005 | 18.73899 | 39148 ft | 502 kts | 136° |
| 2026-05-04 00:59 | 46.02785 | 18.80592 | 39150 ft | 502 kts | 136° |
| 2026-05-04 01:00 | 45.97561 | 18.87275 | 39148 ft | 503 kts | 136° |
| 2026-05-04 01:00 | 45.92332 | 18.93949 | 39147 ft | 503 kts | 136° |
| 2026-05-04 01:01 | 45.87406 | 19.01054 | 39151 ft | 501 kts | 130° |
| 2026-05-04 01:01 | 45.82691 | 19.08416 | 39157 ft | 501 kts | 130° |
| 2026-05-04 01:02 | 45.77920 | 19.15731 | 39155 ft | 502 kts | 131° |
| 2026-05-04 01:02 | 45.73133 | 19.22908 | 39155 ft | 502 kts | 131° |
| 2026-05-04 01:03 | 45.68282 | 19.30115 | 39156 ft | 502 kts | 131° |
| 2026-05-04 01:03 | 45.63434 | 19.37297 | 39159 ft | 502 kts | 131° |
| 2026-05-04 01:04 | 45.58572 | 19.44487 | 39155 ft | 503 kts | 131° |
| 2026-05-04 01:04 | 45.53707 | 19.51666 | 39161 ft | 503 kts | 131° |
| 2026-05-04 01:05 | 45.48839 | 19.58832 | 39161 ft | 503 kts | 131° |
| 2026-05-04 01:05 | 45.43961 | 19.65991 | 39157 ft | 504 kts | 131° |
| 2026-05-04 01:06 | 45.39104 | 19.73102 | 39165 ft | 504 kts | 131° |
| 2026-05-04 01:06 | 45.34212 | 19.80246 | 39170 ft | 504 kts | 131° |
| 2026-05-04 01:07 | 45.29313 | 19.87380 | 39167 ft | 504 kts | 131° |
| 2026-05-04 01:07 | 45.24408 | 19.94504 | 39164 ft | 504 kts | 131° |
| 2026-05-04 01:08 | 45.19493 | 20.01624 | 39174 ft | 505 kts | 131° |
| 2026-05-04 01:08 | 45.14574 | 20.08730 | 39175 ft | 505 kts | 131° |
| 2026-05-04 01:09 | 45.09647 | 20.15831 | 39178 ft | 505 kts | 131° |
| 2026-05-04 01:09 | 45.04717 | 20.22917 | 39189 ft | 505 kts | 132° |
| 2026-05-04 01:10 | 44.99782 | 20.29991 | 39182 ft | 505 kts | 132° |
| 2026-05-04 01:10 | 44.94878 | 20.37003 | 39185 ft | 506 kts | 132° |
| 2026-05-04 01:11 | 44.89931 | 20.44058 | 39162 ft | 506 kts | 132° |
| 2026-05-04 01:11 | 44.84969 | 20.51116 | 39163 ft | 506 kts | 132° |
| 2026-05-04 01:12 | 44.80011 | 20.58149 | 39166 ft | 506 kts | 132° |
| 2026-05-04 01:12 | 44.75044 | 20.65178 | 39171 ft | 506 kts | 132° |
| 2026-05-04 01:13 | 44.70077 | 20.72190 | 39172 ft | 506 kts | 132° |
| 2026-05-04 01:13 | 44.65125 | 20.79163 | 39176 ft | 507 kts | 132° |
| 2026-05-04 01:14 | 44.60128 | 20.86179 | 39176 ft | 507 kts | 132° |
| 2026-05-04 01:14 | 44.55135 | 20.93171 | 39178 ft | 507 kts | 132° |
| 2026-05-04 01:15 | 44.50137 | 21.00154 | 39180 ft | 507 kts | 132° |
| 2026-05-04 01:15 | 44.45135 | 21.07122 | 39181 ft | 507 kts | 133° |
| 2026-05-04 01:16 | 44.40172 | 21.14020 | 39174 ft | 506 kts | 133° |
| 2026-05-04 01:16 | 44.35166 | 21.20959 | 39183 ft | 506 kts | 133° |
| 2026-05-04 01:17 | 44.30119 | 21.27819 | 39190 ft | 507 kts | 136° |
| 2026-05-04 01:17 | 44.24711 | 21.34168 | 39187 ft | 508 kts | 139° |
| 2026-05-04 01:18 | 44.19221 | 21.40390 | 39186 ft | 508 kts | 138° |
| 2026-05-04 01:18 | 44.13781 | 21.46671 | 39188 ft | 507 kts | 137° |
| 2026-05-04 01:19 | 44.08371 | 21.52993 | 39190 ft | 507 kts | 137° |
| 2026-05-04 01:19 | 44.02968 | 21.59315 | 39190 ft | 507 kts | 137° |
| 2026-05-04 01:20 | 43.97595 | 21.65581 | 39190 ft | 507 kts | 138° |
| 2026-05-04 01:20 | 43.92187 | 21.71867 | 39194 ft | 507 kts | 138° |
| 2026-05-04 01:21 | 43.86776 | 21.78141 | 39190 ft | 507 kts | 138° |
| 2026-05-04 01:21 | 43.81357 | 21.84409 | 39192 ft | 507 kts | 138° |
| 2026-05-04 01:22 | 43.75938 | 21.90662 | 39189 ft | 507 kts | 138° |
| 2026-05-04 01:22 | 43.70503 | 21.96917 | 39196 ft | 508 kts | 138° |
| 2026-05-04 01:23 | 43.65070 | 22.03155 | 39205 ft | 508 kts | 138° |
| 2026-05-04 01:23 | 43.59624 | 22.09393 | 39205 ft | 508 kts | 138° |
| 2026-05-04 01:24 | 43.54188 | 22.15604 | 39207 ft | 508 kts | 138° |
| 2026-05-04 01:24 | 43.48777 | 22.21772 | 39214 ft | 508 kts | 138° |
| 2026-05-04 01:25 | 43.43331 | 22.27964 | 39217 ft | 508 kts | 138° |
| 2026-05-04 01:25 | 43.37886 | 22.34140 | 39218 ft | 507 kts | 138° |
| 2026-05-04 01:26 | 43.32437 | 22.40307 | 39219 ft | 507 kts | 138° |
| 2026-05-04 01:26 | 43.26997 | 22.46447 | 39221 ft | 506 kts | 138° |
| 2026-05-04 01:27 | 43.21549 | 22.52583 | 39215 ft | 506 kts | 138° |
| 2026-05-04 01:27 | 43.16102 | 22.58704 | 39208 ft | 506 kts | 138° |
| 2026-05-04 01:28 | 43.10645 | 22.64822 | 39207 ft | 507 kts | 138° |
| 2026-05-04 01:28 | 43.05208 | 22.70902 | 39212 ft | 508 kts | 138° |
| 2026-05-04 01:29 | 42.99723 | 22.77020 | 39205 ft | 509 kts | 138° |
| 2026-05-04 01:29 | 42.94286 | 22.83215 | 39208 ft | 508 kts | 135° |
| 2026-05-04 01:30 | 42.89153 | 22.89861 | 39211 ft | 509 kts | 133° |
| 2026-05-04 01:30 | 42.84066 | 22.96576 | 39204 ft | 510 kts | 134° |
| 2026-05-04 01:31 | 42.78908 | 23.03237 | 39201 ft | 511 kts | 134° |
| 2026-05-04 01:31 | 42.73709 | 23.09855 | 39192 ft | 512 kts | 135° |
| 2026-05-04 01:32 | 42.68490 | 23.16463 | 39189 ft | 512 kts | 135° |
| 2026-05-04 01:32 | 42.63276 | 23.23054 | 39189 ft | 512 kts | 134° |
| 2026-05-04 01:33 | 42.58067 | 23.29627 | 39188 ft | 511 kts | 134° |
| 2026-05-04 01:33 | 42.52893 | 23.36144 | 39187 ft | 511 kts | 135° |
| 2026-05-04 01:34 | 42.47677 | 23.42697 | 39190 ft | 511 kts | 135° |
| 2026-05-04 01:34 | 42.42448 | 23.49252 | 39188 ft | 512 kts | 135° |
| 2026-05-04 01:35 | 42.37212 | 23.55797 | 39198 ft | 512 kts | 135° |
| 2026-05-04 01:35 | 42.31979 | 23.62325 | 39186 ft | 512 kts | 135° |
| 2026-05-04 01:36 | 42.26730 | 23.68830 | 39205 ft | 512 kts | 135° |
| 2026-05-04 01:36 | 42.21437 | 23.75260 | 39201 ft | 512 kts | 136° |
| 2026-05-04 01:37 | 42.16143 | 23.81664 | 39192 ft | 511 kts | 136° |
| 2026-05-04 01:37 | 42.10849 | 23.88070 | 39189 ft | 511 kts | 136° |
| 2026-05-04 01:38 | 42.05564 | 23.94462 | 39193 ft | 511 kts | 136° |
| 2026-05-04 01:38 | 42.00276 | 24.00843 | 39188 ft | 511 kts | 136° |
| 2026-05-04 01:39 | 41.94986 | 24.07215 | 39188 ft | 511 kts | 136° |
| 2026-05-04 01:39 | 41.89690 | 24.13574 | 39187 ft | 511 kts | 136° |
| 2026-05-04 01:40 | 41.84396 | 24.19917 | 39191 ft | 510 kts | 136° |
| 2026-05-04 01:40 | 41.79126 | 24.26219 | 39189 ft | 510 kts | 136° |
| 2026-05-04 01:41 | 41.73815 | 24.32555 | 39190 ft | 511 kts | 136° |
| 2026-05-04 01:41 | 41.68511 | 24.38868 | 39189 ft | 511 kts | 136° |
| 2026-05-04 01:42 | 41.63200 | 24.45175 | 39190 ft | 510 kts | 136° |
| 2026-05-04 01:42 | 41.58788 | 24.50401 | 39184 ft | 510 kts | 137° |
| 2026-05-04 01:43 | 41.53483 | 24.56674 | 39177 ft | 510 kts | 137° |
| 2026-05-04 01:43 | 41.48168 | 24.62944 | 39181 ft | 510 kts | 137° |
| 2026-05-04 01:44 | 41.42852 | 24.69201 | 39170 ft | 510 kts | 137° |
| 2026-05-04 01:44 | 41.37649 | 24.75607 | 39164 ft | 509 kts | 134° |
| 2026-05-04 01:45 | 41.32657 | 24.82266 | 39158 ft | 508 kts | 133° |
| 2026-05-04 01:45 | 41.25144 | 24.92219 | 39145 ft | 508 kts | 134° |
| 2026-05-04 01:46 | 41.20125 | 24.98751 | 39142 ft | 508 kts | 134° |
| 2026-05-04 01:46 | 41.15064 | 25.05305 | 39135 ft | 508 kts | 134° |
| 2026-05-04 01:47 | 41.09997 | 25.11852 | 39128 ft | 508 kts | 134° |
| 2026-05-04 01:47 | 41.04932 | 25.18386 | 39123 ft | 508 kts | 134° |
| 2026-05-04 01:48 | 40.99862 | 25.24913 | 39122 ft | 508 kts | 134° |
| 2026-05-04 01:48 | 40.94795 | 25.31422 | 39117 ft | 507 kts | 134° |
| 2026-05-04 01:49 | 40.89723 | 25.37921 | 39113 ft | 507 kts | 135° |
| 2026-05-04 01:49 | 40.84652 | 25.44405 | 39112 ft | 507 kts | 135° |
| 2026-05-04 01:50 | 40.79578 | 25.50878 | 39109 ft | 507 kts | 135° |
| 2026-05-04 01:50 | 40.74505 | 25.57336 | 39103 ft | 507 kts | 135° |
| 2026-05-04 01:51 | 40.69460 | 25.63743 | 39099 ft | 507 kts | 135° |
| 2026-05-04 01:51 | 40.64379 | 25.70181 | 39095 ft | 507 kts | 135° |
| 2026-05-04 01:52 | 40.59292 | 25.76614 | 39098 ft | 507 kts | 135° |
| 2026-05-04 01:52 | 40.54195 | 25.83046 | 39102 ft | 508 kts | 135° |
| 2026-05-04 01:53 | 40.49405 | 25.89826 | 39104 ft | 506 kts | 123° |
| 2026-05-04 01:53 | 40.45492 | 25.97492 | 39101 ft | 505 kts | 121° |
| 2026-05-04 01:54 | 40.41730 | 26.05296 | 39098 ft | 506 kts | 120° |
| 2026-05-04 01:54 | 40.37974 | 26.13107 | 39096 ft | 506 kts | 121° |
| 2026-05-04 01:55 | 40.34199 | 26.20886 | 39096 ft | 505 kts | 121° |
| 2026-05-04 01:55 | 40.30409 | 26.28644 | 39096 ft | 505 kts | 121° |
| 2026-05-04 01:56 | 40.26615 | 26.36388 | 39098 ft | 504 kts | 121° |
| 2026-05-04 01:56 | 40.22845 | 26.44063 | 39100 ft | 504 kts | 122° |
| 2026-05-04 01:57 | 40.19048 | 26.51777 | 39103 ft | 504 kts | 122° |
| 2026-05-04 01:57 | 40.15245 | 26.59482 | 39100 ft | 504 kts | 122° |
| 2026-05-04 01:58 | 40.11443 | 26.67169 | 39096 ft | 504 kts | 122° |
| 2026-05-04 01:58 | 40.07628 | 26.74861 | 39088 ft | 505 kts | 122° |
| 2026-05-04 01:59 | 40.03803 | 26.82558 | 39079 ft | 505 kts | 122° |
| 2026-05-04 01:59 | 39.99979 | 26.90233 | 39071 ft | 504 kts | 122° |
| 2026-05-04 02:00 | 39.96148 | 26.97902 | 39068 ft | 504 kts | 122° |
| 2026-05-04 02:00 | 39.92317 | 27.05552 | 39061 ft | 504 kts | 122° |
| 2026-05-04 02:01 | 39.88474 | 27.13206 | 39058 ft | 505 kts | 122° |
| 2026-05-04 02:01 | 39.84625 | 27.20857 | 39051 ft | 505 kts | 122° |
| 2026-05-04 02:02 | 39.80800 | 27.28440 | 39045 ft | 505 kts | 122° |
| 2026-05-04 02:02 | 39.76944 | 27.36078 | 39035 ft | 505 kts | 122° |
| 2026-05-04 02:03 | 39.73080 | 27.43692 | 39026 ft | 504 kts | 122° |
| 2026-05-04 02:03 | 39.69207 | 27.51305 | 39022 ft | 504 kts | 122° |
| 2026-05-04 02:04 | 39.65337 | 27.58899 | 39018 ft | 505 kts | 122° |
| 2026-05-04 02:04 | 39.61456 | 27.66501 | 39016 ft | 505 kts | 122° |
| 2026-05-04 02:05 | 39.57569 | 27.74096 | 39015 ft | 506 kts | 122° |
| 2026-05-04 02:05 | 39.53671 | 27.81693 | 39020 ft | 506 kts | 122° |
| 2026-05-04 02:06 | 39.49767 | 27.89291 | 39017 ft | 507 kts | 122° |
| 2026-05-04 02:06 | 39.45878 | 27.96834 | 39012 ft | 507 kts | 123° |
| 2026-05-04 02:07 | 39.41957 | 28.04420 | 39002 ft | 507 kts | 123° |
| 2026-05-04 02:07 | 39.38028 | 28.12003 | 38983 ft | 508 kts | 123° |
| 2026-05-04 02:08 | 39.34090 | 28.19590 | 38968 ft | 508 kts | 123° |
| 2026-05-04 02:08 | 39.30141 | 28.27178 | 38958 ft | 509 kts | 123° |
| 2026-05-04 02:09 | 39.26186 | 28.34765 | 38948 ft | 509 kts | 123° |
| 2026-05-04 02:09 | 39.22247 | 28.42301 | 38939 ft | 510 kts | 123° |
| 2026-05-04 02:10 | 39.18271 | 28.49891 | 38927 ft | 511 kts | 123° |
| 2026-05-04 02:10 | 39.14286 | 28.57480 | 38919 ft | 511 kts | 123° |
| 2026-05-04 02:11 | 39.10289 | 28.65073 | 38906 ft | 512 kts | 123° |
| 2026-05-04 02:11 | 39.06288 | 28.72660 | 38898 ft | 513 kts | 123° |
| 2026-05-04 02:12 | 39.02276 | 28.80249 | 38886 ft | 513 kts | 123° |
| 2026-05-04 02:12 | 38.98252 | 28.87839 | 38879 ft | 513 kts | 123° |
| 2026-05-04 02:13 | 38.94227 | 28.95413 | 38871 ft | 513 kts | 124° |
| 2026-05-04 02:13 | 38.90198 | 29.02979 | 38863 ft | 513 kts | 124° |
| 2026-05-04 02:14 | 38.86169 | 29.10528 | 38856 ft | 512 kts | 124° |
| 2026-05-04 02:14 | 38.82167 | 29.18009 | 38852 ft | 512 kts | 124° |
| 2026-05-04 02:15 | 38.78130 | 29.25536 | 38843 ft | 512 kts | 124° |
| 2026-05-04 02:15 | 38.74083 | 29.33066 | 38843 ft | 513 kts | 124° |
| 2026-05-04 02:16 | 38.70031 | 29.40586 | 38839 ft | 513 kts | 124° |
| 2026-05-04 02:16 | 38.65973 | 29.48101 | 38830 ft | 513 kts | 124° |
| 2026-05-04 02:17 | 38.61826 | 29.55520 | 38825 ft | 512 kts | 126° |
| 2026-05-04 02:17 | 38.57604 | 29.62868 | 38823 ft | 512 kts | 126° |
| 2026-05-04 02:18 | 38.53396 | 29.70207 | 38824 ft | 512 kts | 126° |
| 2026-05-04 02:18 | 38.49192 | 29.77565 | 38820 ft | 513 kts | 126° |
| 2026-05-04 02:19 | 38.45016 | 29.84872 | 38814 ft | 513 kts | 126° |
| 2026-05-04 02:19 | 38.40779 | 29.92268 | 38817 ft | 513 kts | 127° |
| 2026-05-04 02:20 | 38.36589 | 29.99564 | 38816 ft | 513 kts | 127° |
| 2026-05-04 02:20 | 38.32366 | 30.06902 | 38813 ft | 513 kts | 127° |
| 2026-05-04 02:21 | 38.28144 | 30.14226 | 38806 ft | 513 kts | 127° |
| 2026-05-04 02:21 | 38.23920 | 30.21553 | 38807 ft | 513 kts | 127° |
| 2026-05-04 02:22 | 38.19690 | 30.28860 | 38802 ft | 513 kts | 127° |
| 2026-05-04 02:22 | 38.15454 | 30.36157 | 38797 ft | 512 kts | 127° |
| 2026-05-04 02:23 | 38.11249 | 30.43386 | 38795 ft | 512 kts | 127° |
| 2026-05-04 02:23 | 38.07016 | 30.50649 | 38794 ft | 512 kts | 127° |
| 2026-05-04 02:24 | 38.02776 | 30.57910 | 38787 ft | 512 kts | 128° |
| 2026-05-04 02:24 | 37.98528 | 30.65168 | 38781 ft | 512 kts | 128° |
| 2026-05-04 02:25 | 37.94283 | 30.72431 | 38773 ft | 513 kts | 128° |
| 2026-05-04 02:25 | 37.90031 | 30.79688 | 38765 ft | 513 kts | 128° |
| 2026-05-04 02:26 | 37.85763 | 30.86954 | 38762 ft | 514 kts | 128° |
| 2026-05-04 02:26 | 37.81492 | 30.94211 | 38758 ft | 514 kts | 128° |
| 2026-05-04 02:27 | 37.77214 | 31.01464 | 38750 ft | 514 kts | 128° |
| 2026-05-04 02:27 | 37.72926 | 31.08718 | 38749 ft | 515 kts | 128° |
| 2026-05-04 02:28 | 37.68662 | 31.15918 | 38746 ft | 515 kts | 128° |
| 2026-05-04 02:28 | 37.64362 | 31.23160 | 38746 ft | 515 kts | 128° |
| 2026-05-04 02:29 | 37.60055 | 31.30400 | 38746 ft | 515 kts | 128° |
| 2026-05-04 02:29 | 37.55741 | 31.37636 | 38740 ft | 516 kts | 128° |
| 2026-05-04 02:30 | 37.51423 | 31.44862 | 38742 ft | 516 kts | 129° |
| 2026-05-04 02:30 | 37.47121 | 31.52044 | 38742 ft | 516 kts | 129° |
| 2026-05-04 02:31 | 37.42800 | 31.59245 | 38741 ft | 516 kts | 129° |
| 2026-05-04 02:31 | 37.38471 | 31.66441 | 38744 ft | 516 kts | 129° |
| 2026-05-04 02:32 | 37.34867 | 31.72422 | 38740 ft | 516 kts | 129° |
| 2026-05-04 02:32 | 37.30528 | 31.79595 | 38743 ft | 515 kts | 129° |
| 2026-05-04 02:33 | 37.26181 | 31.86760 | 38745 ft | 515 kts | 129° |
| 2026-05-04 02:33 | 37.21833 | 31.93914 | 38747 ft | 515 kts | 129° |
| 2026-05-04 02:34 | 37.17502 | 32.01026 | 38745 ft | 515 kts | 129° |
| 2026-05-04 02:34 | 37.13160 | 32.08145 | 38747 ft | 514 kts | 129° |
| 2026-05-04 02:35 | 37.08808 | 32.15262 | 38747 ft | 513 kts | 130° |
| 2026-05-04 02:35 | 37.04459 | 32.22361 | 38749 ft | 513 kts | 130° |
| 2026-05-04 02:36 | 37.00116 | 32.29432 | 38745 ft | 512 kts | 130° |
| 2026-05-04 02:36 | 36.95771 | 32.36493 | 38751 ft | 512 kts | 130° |
| 2026-05-04 02:37 | 36.91452 | 32.43498 | 38752 ft | 512 kts | 130° |
| 2026-05-04 02:37 | 36.87107 | 32.50533 | 38753 ft | 511 kts | 130° |
| 2026-05-04 02:38 | 36.82759 | 32.57563 | 38753 ft | 511 kts | 130° |
| 2026-05-04 02:38 | 36.78403 | 32.64590 | 38761 ft | 511 kts | 131° |
| 2026-05-04 02:39 | 36.74036 | 32.71619 | 38760 ft | 512 kts | 131° |
| 2026-05-04 02:39 | 36.69672 | 32.78631 | 38763 ft | 512 kts | 131° |
| 2026-05-04 02:40 | 36.65294 | 32.85650 | 38760 ft | 512 kts | 131° |
| 2026-05-04 02:40 | 36.60941 | 32.92616 | 38763 ft | 513 kts | 131° |
| 2026-05-04 02:41 | 36.56555 | 32.99618 | 38762 ft | 513 kts | 131° |
| 2026-05-04 02:41 | 36.52166 | 33.06611 | 38767 ft | 513 kts | 132° |
| 2026-05-04 02:42 | 36.47774 | 33.13596 | 38763 ft | 513 kts | 132° |
| 2026-05-04 02:42 | 36.43372 | 33.20580 | 38763 ft | 513 kts | 132° |
| 2026-05-04 02:43 | 36.38970 | 33.27551 | 38777 ft | 513 kts | 132° |
| 2026-05-04 02:43 | 36.34568 | 33.34505 | 38772 ft | 512 kts | 133° |
| 2026-05-04 02:44 | 36.30157 | 33.41444 | 38767 ft | 512 kts | 133° |
| 2026-05-04 02:44 | 36.25768 | 33.48336 | 38771 ft | 512 kts | 133° |
| 2026-05-04 02:45 | 36.21342 | 33.55272 | 38771 ft | 512 kts | 133° |
| 2026-05-04 02:45 | 36.16922 | 33.62188 | 38780 ft | 512 kts | 133° |
| 2026-05-04 02:46 | 36.12499 | 33.69094 | 38779 ft | 512 kts | 133° |
| 2026-05-04 02:46 | 36.08066 | 33.76001 | 38784 ft | 512 kts | 134° |
| 2026-05-04 02:47 | 36.03633 | 33.82895 | 38794 ft | 512 kts | 134° |
| 2026-05-04 02:47 | 35.99199 | 33.89777 | 38793 ft | 512 kts | 134° |
| 2026-05-04 02:48 | 35.94783 | 33.96615 | 38798 ft | 512 kts | 134° |
| 2026-05-04 02:48 | 35.90687 | 34.03849 | 38801 ft | 519 kts | 124° |
| 2026-05-04 02:49 | 35.87293 | 34.11725 | 38807 ft | 521 kts | 122° |
| 2026-05-04 02:49 | 35.84007 | 34.19696 | 38806 ft | 521 kts | 122° |
| 2026-05-04 02:50 | 35.80720 | 34.27664 | 38809 ft | 521 kts | 122° |
| 2026-05-04 02:50 | 35.77414 | 34.35606 | 38815 ft | 521 kts | 123° |
| 2026-05-04 02:51 | 35.74117 | 34.43480 | 38819 ft | 521 kts | 123° |
| 2026-05-04 02:51 | 35.70797 | 34.51389 | 38821 ft | 520 kts | 123° |
| 2026-05-04 02:52 | 35.67467 | 34.59302 | 38828 ft | 520 kts | 123° |
| 2026-05-04 02:52 | 35.64133 | 34.67206 | 38833 ft | 521 kts | 123° |
| 2026-05-04 02:53 | 35.60794 | 34.75107 | 38838 ft | 521 kts | 123° |
| 2026-05-04 02:53 | 35.57441 | 34.83018 | 38845 ft | 522 kts | 124° |
| 2026-05-04 02:54 | 35.54102 | 34.90881 | 38849 ft | 522 kts | 124° |
| 2026-05-04 02:54 | 35.50741 | 34.98777 | 38856 ft | 522 kts | 124° |
| 2026-05-04 02:55 | 35.45682 | 35.10627 | 38863 ft | 521 kts | 124° |
| 2026-05-04 02:56 | 35.42311 | 35.18498 | 38863 ft | 521 kts | 124° |
| 2026-05-04 02:56 | 35.38941 | 35.26348 | 38863 ft | 520 kts | 124° |
| 2026-05-04 02:57 | 35.35587 | 35.34145 | 38866 ft | 519 kts | 125° |
| 2026-05-04 02:57 | 35.32193 | 35.42014 | 38872 ft | 519 kts | 125° |
| 2026-05-04 02:58 | 35.28842 | 35.49764 | 38876 ft | 519 kts | 125° |
| 2026-05-04 02:58 | 35.25460 | 35.57568 | 38881 ft | 519 kts | 125° |
| 2026-05-04 02:59 | 35.22138 | 35.65439 | 38896 ft | 525 kts | 120° |
| 2026-05-04 02:59 | 35.20286 | 35.74202 | 38891 ft | 544 kts | 99° |
| 2026-05-04 02:59 | 35.20338 | 35.78855 | 38896 ft | 552 kts | 87° |
| 2026-05-04 03:00 | 35.20834 | 35.83535 | 38888 ft | 553 kts | 85° |
| 2026-05-04 03:00 | 35.21124 | 35.88193 | 38891 ft | 547 kts | 96° |
| 2026-05-04 03:00 | 35.20800 | 35.92804 | 38890 ft | 536 kts | 107° |
| 2026-05-04 03:00 | 35.19847 | 35.97083 | 38899 ft | 524 kts | 118° |
| 2026-05-04 03:01 | 35.18281 | 36.01050 | 38899 ft | 511 kts | 129° |
| 2026-05-04 03:01 | 35.16231 | 36.04525 | 38905 ft | 500 kts | 138° |
| 2026-05-04 03:01 | 35.13956 | 36.07727 | 38907 ft | 497 kts | 140° |
| 2026-05-04 03:02 | 35.09204 | 36.13846 | 38904 ft | 495 kts | 142° |
| 2026-05-04 03:02 | 35.04430 | 36.19896 | 38906 ft | 495 kts | 142° |
| 2026-05-04 03:03 | 34.99688 | 36.26004 | 38912 ft | 495 kts | 142° |
| 2026-05-04 03:03 | 34.95003 | 36.32085 | 38915 ft | 495 kts | 142° |
| 2026-05-04 03:04 | 34.90292 | 36.38204 | 38916 ft | 495 kts | 142° |
| 2026-05-04 03:04 | 34.85572 | 36.44318 | 38909 ft | 496 kts | 142° |
| 2026-05-04 03:05 | 34.80833 | 36.50440 | 38921 ft | 497 kts | 142° |
| 2026-05-04 03:05 | 34.76086 | 36.56563 | 38918 ft | 498 kts | 142° |
| 2026-05-04 03:06 | 34.71330 | 36.62687 | 38918 ft | 498 kts | 142° |
| 2026-05-04 03:06 | 34.66559 | 36.68823 | 38917 ft | 499 kts | 143° |
| 2026-05-04 03:07 | 34.61789 | 36.74943 | 38921 ft | 499 kts | 143° |
| 2026-05-04 03:07 | 34.57012 | 36.81059 | 38924 ft | 499 kts | 143° |
| 2026-05-04 03:08 | 34.52230 | 36.87172 | 38928 ft | 499 kts | 143° |
| 2026-05-04 03:08 | 34.47479 | 36.93236 | 38928 ft | 498 kts | 143° |
| 2026-05-04 03:09 | 34.42694 | 36.99332 | 38930 ft | 498 kts | 144° |
| 2026-05-04 03:09 | 34.37919 | 37.05404 | 38932 ft | 498 kts | 144° |
| 2026-05-04 03:10 | 34.33138 | 37.11472 | 38931 ft | 498 kts | 144° |
| 2026-05-04 03:10 | 34.28359 | 37.17528 | 38927 ft | 497 kts | 144° |
| 2026-05-04 03:11 | 34.23569 | 37.23533 | 38929 ft | 493 kts | 147° |
| 2026-05-04 03:11 | 34.20967 | 37.26157 | 39061 ft | 480 kts | 156° |
| 2026-05-04 03:11 | 34.18166 | 37.28256 | 39253 ft | 469 kts | 162° |
| 2026-05-04 03:11 | 34.15301 | 37.30096 | 39466 ft | 466 kts | 164° |
| 2026-05-04 03:12 | 34.12411 | 37.31853 | 39664 ft | 465 kts | 165° |
| 2026-05-04 03:12 | 34.09508 | 37.33571 | 39832 ft | 464 kts | 165° |
| 2026-05-04 03:12 | 34.06602 | 37.35276 | 39997 ft | 465 kts | 165° |
| 2026-05-04 03:12 | 34.03729 | 37.36961 | 40162 ft | 465 kts | 165° |
| 2026-05-04 03:13 | 34.00784 | 37.38697 | 40344 ft | 466 kts | 165° |
| 2026-05-04 03:13 | 33.97873 | 37.40418 | 40496 ft | 467 kts | 165° |
| 2026-05-04 03:13 | 33.94994 | 37.42126 | 40661 ft | 467 kts | 165° |
| 2026-05-04 03:13 | 33.92079 | 37.43859 | 40815 ft | 468 kts | 165° |
| 2026-05-04 03:14 | 33.89162 | 37.45593 | 40938 ft | 469 kts | 165° |
| 2026-05-04 03:14 | 33.83311 | 37.49067 | 40965 ft | 469 kts | 165° |
| 2026-05-04 03:15 | 33.77461 | 37.52536 | 40963 ft | 469 kts | 165° |
| 2026-05-04 03:15 | 33.71609 | 37.55998 | 40966 ft | 469 kts | 165° |
| 2026-05-04 03:16 | 33.65745 | 37.59462 | 40966 ft | 470 kts | 165° |
| 2026-05-04 03:16 | 33.59874 | 37.62924 | 40978 ft | 470 kts | 165° |
| 2026-05-04 03:17 | 33.54001 | 37.66382 | 40979 ft | 470 kts | 165° |
| 2026-05-04 03:17 | 33.48110 | 37.69783 | 40981 ft | 470 kts | 166° |
| 2026-05-04 03:18 | 33.42209 | 37.73155 | 40982 ft | 470 kts | 165° |
| 2026-05-04 03:18 | 33.36299 | 37.76523 | 40985 ft | 470 kts | 166° |
| 2026-05-04 03:19 | 33.30386 | 37.79879 | 40982 ft | 470 kts | 166° |
| 2026-05-04 03:19 | 33.24477 | 37.83233 | 40986 ft | 471 kts | 166° |
| 2026-05-04 03:20 | 33.19558 | 37.86026 | 40984 ft | 471 kts | 166° |
| 2026-05-04 03:20 | 33.13645 | 37.89379 | 40991 ft | 471 kts | 166° |
| 2026-05-04 03:21 | 33.07729 | 37.92729 | 40991 ft | 470 kts | 166° |
| 2026-05-04 03:21 | 33.01814 | 37.96073 | 40987 ft | 470 kts | 166° |
| 2026-05-04 03:22 | 32.95904 | 37.99408 | 40993 ft | 470 kts | 166° |
| 2026-05-04 03:22 | 32.90005 | 38.02803 | 40994 ft | 471 kts | 165° |
| 2026-05-04 03:23 | 32.84140 | 38.06313 | 40995 ft | 472 kts | 165° |
| 2026-05-04 03:23 | 32.78283 | 38.09833 | 40991 ft | 471 kts | 165° |
| 2026-05-04 03:24 | 32.72462 | 38.13300 | 41000 ft | 471 kts | 165° |
| 2026-05-04 03:24 | 32.66605 | 38.16772 | 41007 ft | 470 kts | 165° |
| 2026-05-04 03:25 | 32.60745 | 38.20239 | 40998 ft | 470 kts | 165° |
| 2026-05-04 03:25 | 32.54887 | 38.23700 | 40999 ft | 470 kts | 165° |
| 2026-05-04 03:26 | 32.49042 | 38.27149 | 41002 ft | 469 kts | 165° |
| 2026-05-04 03:26 | 32.43190 | 38.30598 | 41004 ft | 469 kts | 165° |
| 2026-05-04 03:27 | 32.37340 | 38.34040 | 41009 ft | 469 kts | 165° |
| 2026-05-04 03:27 | 32.31529 | 38.37455 | 41010 ft | 469 kts | 165° |
| 2026-05-04 03:28 | 32.25680 | 38.40887 | 41006 ft | 469 kts | 165° |
| 2026-05-04 03:28 | 32.19829 | 38.44315 | 41012 ft | 469 kts | 165° |
| 2026-05-04 03:29 | 32.13975 | 38.47740 | 41012 ft | 469 kts | 165° |
| 2026-05-04 03:29 | 32.08116 | 38.51163 | 41015 ft | 470 kts | 165° |
| 2026-05-04 03:30 | 32.02258 | 38.54581 | 41017 ft | 470 kts | 165° |
| 2026-05-04 03:30 | 31.96390 | 38.58000 | 41018 ft | 470 kts | 165° |
| 2026-05-04 03:31 | 31.90559 | 38.61392 | 41017 ft | 470 kts | 165° |
| 2026-05-04 03:31 | 31.84687 | 38.64808 | 41017 ft | 470 kts | 165° |
| 2026-05-04 03:32 | 31.78818 | 38.68217 | 41020 ft | 470 kts | 165° |
| 2026-05-04 03:32 | 31.72945 | 38.71623 | 41014 ft | 470 kts | 165° |
| 2026-05-04 03:33 | 31.67186 | 38.75305 | 41019 ft | 478 kts | 161° |
| 2026-05-04 03:33 | 31.61485 | 38.79357 | 41016 ft | 479 kts | 160° |
| 2026-05-04 03:34 | 31.55808 | 38.83452 | 41018 ft | 479 kts | 160° |
| 2026-05-04 03:34 | 31.50125 | 38.87542 | 41023 ft | 479 kts | 160° |
| 2026-05-04 03:35 | 31.44437 | 38.91618 | 41024 ft | 479 kts | 160° |
| 2026-05-04 03:35 | 31.38738 | 38.95690 | 41033 ft | 479 kts | 160° |
| 2026-05-04 03:36 | 31.33078 | 38.99729 | 41038 ft | 479 kts | 160° |
| 2026-05-04 03:36 | 31.27381 | 39.03789 | 41044 ft | 479 kts | 161° |
| 2026-05-04 03:37 | 31.21678 | 39.07847 | 41043 ft | 480 kts | 161° |
| 2026-05-04 03:37 | 31.15972 | 39.11903 | 41043 ft | 480 kts | 161° |
| 2026-05-04 03:38 | 31.10265 | 39.15952 | 41045 ft | 480 kts | 161° |
| 2026-05-04 03:38 | 31.04589 | 39.19975 | 41043 ft | 480 kts | 161° |
| 2026-05-04 03:39 | 30.98878 | 39.24024 | 41050 ft | 480 kts | 161° |
| 2026-05-04 03:39 | 30.93155 | 39.28065 | 41057 ft | 480 kts | 161° |
| 2026-05-04 03:40 | 30.87439 | 39.32095 | 41058 ft | 480 kts | 161° |
| 2026-05-04 03:40 | 30.81717 | 39.36128 | 41057 ft | 480 kts | 161° |
| 2026-05-04 03:41 | 30.75996 | 39.40154 | 41058 ft | 480 kts | 161° |
| 2026-05-04 03:41 | 30.70275 | 39.44174 | 41064 ft | 480 kts | 161° |
| 2026-05-04 03:42 | 30.64589 | 39.48165 | 41065 ft | 480 kts | 161° |
| 2026-05-04 03:42 | 30.58862 | 39.52178 | 41066 ft | 480 kts | 161° |
| 2026-05-04 03:43 | 30.53138 | 39.56184 | 41069 ft | 480 kts | 161° |
| 2026-05-04 03:43 | 30.47416 | 39.60183 | 41070 ft | 480 kts | 161° |
| 2026-05-04 03:44 | 30.41837 | 39.64591 | 41073 ft | 499 kts | 151° |
| 2026-05-04 03:44 | 30.39396 | 39.67467 | 41076 ft | 515 kts | 141° |
| 2026-05-04 03:44 | 30.37133 | 39.70720 | 41074 ft | 520 kts | 139° |
| 2026-05-04 03:45 | 30.32793 | 39.77466 | 41075 ft | 524 kts | 137° |
| 2026-05-04 03:45 | 30.28496 | 39.84278 | 41076 ft | 524 kts | 138° |
| 2026-05-04 03:46 | 30.24167 | 39.91058 | 41073 ft | 523 kts | 138° |
| 2026-05-04 03:46 | 30.19816 | 39.97802 | 41075 ft | 523 kts | 139° |
| 2026-05-04 03:47 | 30.15451 | 40.04538 | 41074 ft | 523 kts | 139° |
| 2026-05-04 03:47 | 30.11085 | 40.11267 | 41069 ft | 524 kts | 139° |
| 2026-05-04 03:48 | 30.06739 | 40.17958 | 41076 ft | 524 kts | 139° |
| 2026-05-04 03:48 | 30.02363 | 40.24687 | 41082 ft | 524 kts | 139° |
| 2026-05-04 03:49 | 29.97975 | 40.31430 | 41078 ft | 525 kts | 139° |
| 2026-05-04 03:49 | 29.93586 | 40.38160 | 41074 ft | 525 kts | 139° |
| 2026-05-04 03:50 | 29.89212 | 40.44851 | 41071 ft | 526 kts | 139° |
| 2026-05-04 03:50 | 29.84800 | 40.51591 | 41073 ft | 526 kts | 139° |
| 2026-05-04 03:51 | 29.80386 | 40.58325 | 41068 ft | 526 kts | 139° |
| 2026-05-04 03:51 | 29.76076 | 40.65187 | 41064 ft | 535 kts | 134° |
| 2026-05-04 03:52 | 29.72117 | 40.72396 | 41052 ft | 537 kts | 133° |
| 2026-05-04 03:52 | 29.68187 | 40.79721 | 41049 ft | 538 kts | 132° |
| 2026-05-04 03:53 | 29.64259 | 40.87039 | 41047 ft | 538 kts | 133° |
| 2026-05-04 03:53 | 29.60312 | 40.94355 | 41044 ft | 538 kts | 133° |
| 2026-05-04 03:54 | 29.56355 | 41.01663 | 41036 ft | 538 kts | 133° |
| 2026-05-04 03:54 | 29.52393 | 41.08965 | 41029 ft | 539 kts | 133° |
| 2026-05-04 03:55 | 29.48424 | 41.16266 | 41025 ft | 539 kts | 133° |
| 2026-05-04 03:55 | 29.44474 | 41.23521 | 41023 ft | 539 kts | 132° |
| 2026-05-04 03:56 | 29.40497 | 41.30814 | 41017 ft | 539 kts | 132° |
| 2026-05-04 03:56 | 29.36511 | 41.38109 | 41013 ft | 540 kts | 132° |
| 2026-05-04 03:57 | 29.32518 | 41.45418 | 41015 ft | 540 kts | 132° |
| 2026-05-04 03:57 | 29.28524 | 41.52704 | 41005 ft | 539 kts | 132° |
| 2026-05-04 03:58 | 29.22557 | 41.63563 | 40993 ft | 539 kts | 132° |
| 2026-05-04 03:58 | 29.18557 | 41.70830 | 41003 ft | 538 kts | 132° |
| 2026-05-04 03:59 | 29.14567 | 41.78067 | 40998 ft | 538 kts | 132° |
| 2026-05-04 03:59 | 29.10572 | 41.85301 | 41001 ft | 537 kts | 132° |
| 2026-05-04 04:00 | 29.06585 | 41.92508 | 40990 ft | 536 kts | 132° |
| 2026-05-04 04:00 | 29.02597 | 41.99711 | 40990 ft | 535 kts | 132° |
| 2026-05-04 04:01 | 28.98610 | 42.06882 | 40989 ft | 534 kts | 132° |
| 2026-05-04 04:01 | 28.94640 | 42.14009 | 40984 ft | 534 kts | 132° |
| 2026-05-04 04:02 | 28.90651 | 42.21162 | 40980 ft | 533 kts | 132° |
| 2026-05-04 04:02 | 28.86662 | 42.28304 | 40977 ft | 532 kts | 132° |
| 2026-05-04 04:03 | 28.82683 | 42.35417 | 40975 ft | 532 kts | 132° |
| 2026-05-04 04:03 | 28.78719 | 42.42492 | 40971 ft | 531 kts | 132° |
| 2026-05-04 04:04 | 28.74735 | 42.49591 | 40963 ft | 531 kts | 132° |
| 2026-05-04 04:04 | 28.70755 | 42.56671 | 40965 ft | 530 kts | 132° |
| 2026-05-04 04:05 | 28.66768 | 42.63749 | 40961 ft | 530 kts | 132° |
| 2026-05-04 04:05 | 28.62816 | 42.70835 | 40964 ft | 533 kts | 130° |
| 2026-05-04 04:06 | 28.59219 | 42.78213 | 40960 ft | 537 kts | 127° |
| 2026-05-04 04:06 | 28.55708 | 42.85716 | 40957 ft | 536 kts | 127° |
| 2026-05-04 04:07 | 28.52144 | 42.93172 | 40957 ft | 536 kts | 128° |
| 2026-05-04 04:07 | 28.48535 | 43.00591 | 40953 ft | 536 kts | 128° |
| 2026-05-04 04:08 | 28.45522 | 43.06749 | 40946 ft | 536 kts | 128° |
| 2026-05-04 04:08 | 28.41304 | 43.15356 | 40943 ft | 536 kts | 128° |
| 2026-05-04 04:09 | 28.37673 | 43.22759 | 40942 ft | 536 kts | 128° |
| 2026-05-04 04:09 | 28.34652 | 43.28908 | 40942 ft | 536 kts | 128° |
| 2026-05-04 04:10 | 28.31017 | 43.36297 | 40933 ft | 536 kts | 128° |
| 2026-05-04 04:10 | 28.27376 | 43.43686 | 40931 ft | 536 kts | 128° |
| 2026-05-04 04:11 | 28.23731 | 43.51067 | 40927 ft | 536 kts | 128° |
| 2026-05-04 04:11 | 28.20078 | 43.58452 | 40928 ft | 537 kts | 128° |
| 2026-05-04 04:12 | 28.16422 | 43.65831 | 40926 ft | 537 kts | 128° |
| 2026-05-04 04:12 | 28.12783 | 43.73164 | 40926 ft | 537 kts | 128° |
| 2026-05-04 04:13 | 28.09119 | 43.80532 | 40925 ft | 538 kts | 128° |
| 2026-05-04 04:13 | 28.05412 | 43.87961 | 40928 ft | 545 kts | 128° |
| 2026-05-04 04:14 | 28.01660 | 43.95475 | 40925 ft | 550 kts | 127° |
| 2026-05-04 04:14 | 27.97885 | 44.03033 | 40927 ft | 551 kts | 127° |
| 2026-05-04 04:15 | 27.94112 | 44.10578 | 40924 ft | 551 kts | 127° |
| 2026-05-04 04:15 | 27.90324 | 44.18132 | 40931 ft | 551 kts | 127° |
| 2026-05-04 04:16 | 27.86536 | 44.25669 | 40934 ft | 551 kts | 127° |
| 2026-05-04 04:16 | 27.82744 | 44.33201 | 40932 ft | 551 kts | 127° |
| 2026-05-04 04:17 | 27.78949 | 44.40725 | 40931 ft | 551 kts | 127° |
| 2026-05-04 04:17 | 27.75153 | 44.48237 | 40933 ft | 551 kts | 127° |
| 2026-05-04 04:18 | 27.71348 | 44.55754 | 40937 ft | 551 kts | 127° |
| 2026-05-04 04:18 | 27.67545 | 44.63255 | 40931 ft | 551 kts | 127° |
| 2026-05-04 04:19 | 27.63761 | 44.70705 | 40934 ft | 551 kts | 127° |
| 2026-05-04 04:19 | 27.59945 | 44.78204 | 40941 ft | 551 kts | 127° |
| 2026-05-04 04:20 | 27.56121 | 44.85707 | 40938 ft | 552 kts | 127° |
| 2026-05-04 04:20 | 27.52294 | 44.93201 | 40934 ft | 552 kts | 127° |
| 2026-05-04 04:21 | 27.48467 | 45.00685 | 40949 ft | 551 kts | 127° |
| 2026-05-04 04:21 | 27.44640 | 45.08157 | 40929 ft | 550 kts | 127° |
| 2026-05-04 04:22 | 27.40813 | 45.15613 | 40932 ft | 550 kts | 127° |
| 2026-05-04 04:22 | 27.36981 | 45.23062 | 40935 ft | 550 kts | 127° |
| 2026-05-04 04:23 | 27.33152 | 45.30496 | 40931 ft | 549 kts | 127° |
| 2026-05-04 04:23 | 27.29314 | 45.37935 | 40932 ft | 549 kts | 127° |
| 2026-05-04 04:24 | 27.25476 | 45.45361 | 40933 ft | 549 kts | 127° |
| 2026-05-04 04:24 | 27.21637 | 45.52777 | 40929 ft | 549 kts | 127° |
| 2026-05-04 04:25 | 27.17794 | 45.60188 | 40933 ft | 549 kts | 127° |
| 2026-05-04 04:25 | 27.13973 | 45.67544 | 40928 ft | 548 kts | 127° |
| 2026-05-04 04:26 | 27.10102 | 45.74981 | 40934 ft | 548 kts | 127° |
| 2026-05-04 04:26 | 27.06283 | 45.82309 | 40932 ft | 548 kts | 127° |
| 2026-05-04 04:27 | 27.02430 | 45.89688 | 40933 ft | 547 kts | 127° |
| 2026-05-04 04:27 | 26.98581 | 45.97049 | 40937 ft | 547 kts | 127° |
| 2026-05-04 04:28 | 26.94729 | 46.04402 | 40936 ft | 546 kts | 127° |
| 2026-05-04 04:28 | 26.90873 | 46.11748 | 40940 ft | 546 kts | 127° |
| 2026-05-04 04:29 | 26.87020 | 46.19080 | 40939 ft | 546 kts | 127° |
| 2026-05-04 04:29 | 26.83164 | 46.26405 | 40943 ft | 545 kts | 127° |
| 2026-05-04 04:30 | 26.79308 | 46.33717 | 40942 ft | 545 kts | 127° |
| 2026-05-04 04:30 | 26.75452 | 46.41016 | 40945 ft | 545 kts | 127° |
| 2026-05-04 04:31 | 26.71599 | 46.48299 | 40952 ft | 544 kts | 127° |
| 2026-05-04 04:31 | 26.67764 | 46.55535 | 40951 ft | 544 kts | 127° |
| 2026-05-04 04:32 | 26.63907 | 46.62800 | 40952 ft | 543 kts | 127° |
| 2026-05-04 04:32 | 26.60049 | 46.70057 | 40950 ft | 543 kts | 127° |
| 2026-05-04 04:33 | 26.56187 | 46.77307 | 40946 ft | 543 kts | 127° |
| 2026-05-04 04:33 | 26.52323 | 46.84551 | 40953 ft | 542 kts | 127° |
| 2026-05-04 04:34 | 26.48459 | 46.91784 | 40952 ft | 542 kts | 127° |
| 2026-05-04 04:34 | 26.44596 | 46.99002 | 40950 ft | 542 kts | 127° |
| 2026-05-04 04:35 | 26.40725 | 47.06223 | 40952 ft | 542 kts | 127° |
| 2026-05-04 04:35 | 26.36859 | 47.13423 | 40951 ft | 541 kts | 127° |
| 2026-05-04 04:36 | 26.32988 | 47.20624 | 40949 ft | 541 kts | 127° |
| 2026-05-04 04:36 | 26.29141 | 47.27765 | 40955 ft | 541 kts | 127° |
| 2026-05-04 04:37 | 26.21391 | 47.42119 | 40948 ft | 540 kts | 127° |
| 2026-05-04 04:38 | 26.17512 | 47.49288 | 40950 ft | 540 kts | 127° |
| 2026-05-04 04:38 | 26.13634 | 47.56442 | 40946 ft | 539 kts | 127° |
| 2026-05-04 04:39 | 26.09757 | 47.63583 | 40940 ft | 539 kts | 126° |
| 2026-05-04 04:39 | 26.05874 | 47.70726 | 40940 ft | 539 kts | 126° |
| 2026-05-04 04:40 | 26.01992 | 47.77853 | 40938 ft | 538 kts | 127° |
| 2026-05-04 04:40 | 25.98111 | 47.84969 | 40937 ft | 538 kts | 126° |
| 2026-05-04 04:41 | 25.94231 | 47.92071 | 40935 ft | 537 kts | 126° |
| 2026-05-04 04:41 | 25.90348 | 47.99168 | 40924 ft | 537 kts | 126° |
| 2026-05-04 04:42 | 25.86466 | 48.06253 | 40924 ft | 537 kts | 126° |
| 2026-05-04 04:42 | 25.82584 | 48.13326 | 40923 ft | 536 kts | 126° |
| 2026-05-04 04:43 | 25.78697 | 48.20397 | 40919 ft | 536 kts | 126° |
| 2026-05-04 04:43 | 25.74814 | 48.27452 | 40920 ft | 536 kts | 126° |
| 2026-05-04 04:44 | 25.70959 | 48.34537 | 40908 ft | 538 kts | 123° |
| 2026-05-04 04:44 | 25.68463 | 48.42354 | 40916 ft | 549 kts | 102° |
| 2026-05-04 04:45 | 25.67670 | 48.50799 | 40908 ft | 552 kts | 96° |
| 2026-05-04 04:47 | 25.65892 | 48.80493 | 40904 ft | 551 kts | 96° |
| 2026-05-04 04:47 | 25.65332 | 48.88957 | 40898 ft | 551 kts | 96° |
| 2026-05-04 04:48 | 25.64769 | 48.97416 | 40899 ft | 549 kts | 96° |
| 2026-05-04 04:49 | 25.63348 | 49.18487 | 40884 ft | 548 kts | 96° |
| 2026-05-04 04:49 | 25.62772 | 49.26905 | 40881 ft | 548 kts | 96° |
| 2026-05-04 04:50 | 25.62193 | 49.35318 | 40886 ft | 547 kts | 96° |
| 2026-05-04 04:50 | 25.61607 | 49.43726 | 40878 ft | 547 kts | 96° |
| 2026-05-04 04:51 | 25.61016 | 49.52131 | 40872 ft | 547 kts | 96° |
| 2026-05-04 04:51 | 25.60720 | 49.56323 | 40733 ft | 543 kts | 96° |
| 2026-05-04 04:51 | 25.60430 | 49.60423 | 40350 ft | 539 kts | 96° |
| 2026-05-04 04:52 | 25.60135 | 49.64560 | 39662 ft | 540 kts | 96° |
| 2026-05-04 04:52 | 25.59836 | 49.68725 | 38926 ft | 542 kts | 96° |
| 2026-05-04 04:52 | 25.59536 | 49.72895 | 38150 ft | 545 kts | 96° |
| 2026-05-04 04:52 | 25.59233 | 49.77088 | 37308 ft | 547 kts | 96° |
| 2026-05-04 04:53 | 25.58928 | 49.81289 | 36496 ft | 548 kts | 96° |
| 2026-05-04 04:53 | 25.58622 | 49.85502 | 35761 ft | 548 kts | 96° |
| 2026-05-04 04:53 | 25.58315 | 49.89714 | 35019 ft | 549 kts | 96° |
| 2026-05-04 04:53 | 25.58007 | 49.93931 | 34212 ft | 551 kts | 96° |
| 2026-05-04 04:54 | 25.57694 | 49.98178 | 33286 ft | 555 kts | 96° |
| 2026-05-04 04:54 | 25.57380 | 50.02444 | 32365 ft | 556 kts | 96° |
| 2026-05-04 04:54 | 25.57063 | 50.06716 | 31456 ft | 558 kts | 96° |
| 2026-05-04 04:54 | 25.56744 | 50.11005 | 30519 ft | 559 kts | 96° |
| 2026-05-04 04:55 | 25.56415 | 50.15303 | 29529 ft | 560 kts | 96° |
| 2026-05-04 04:55 | 25.55636 | 50.19501 | 28624 ft | 554 kts | 109° |
| 2026-05-04 04:55 | 25.54487 | 50.23544 | 27897 ft | 544 kts | 110° |
| 2026-05-04 04:55 | 25.53339 | 50.27418 | 27156 ft | 517 kts | 110° |
| 2026-05-04 04:56 | 25.52593 | 50.29910 | 26705 ft | 514 kts | 110° |
| 2026-05-04 04:56 | 25.51464 | 50.33650 | 26035 ft | 510 kts | 110° |
| 2026-05-04 04:56 | 25.50342 | 50.37354 | 25376 ft | 506 kts | 110° |
| 2026-05-04 04:56 | 25.49226 | 50.41030 | 24724 ft | 501 kts | 110° |
| 2026-05-04 04:57 | 25.48120 | 50.44667 | 24084 ft | 497 kts | 110° |
| 2026-05-04 04:57 | 25.47023 | 50.48270 | 23583 ft | 488 kts | 110° |
| 2026-05-04 04:57 | 25.45951 | 50.51788 | 23153 ft | 477 kts | 110° |
| 2026-05-04 04:57 | 25.44901 | 50.55229 | 22632 ft | 468 kts | 110° |
| 2026-05-04 04:58 | 25.43868 | 50.58611 | 22190 ft | 458 kts | 110° |
| 2026-05-04 04:58 | 25.42859 | 50.61911 | 21808 ft | 448 kts | 110° |
| 2026-05-04 04:58 | 25.41823 | 50.65116 | 21427 ft | 437 kts | 112° |
| 2026-05-04 04:58 | 25.40709 | 50.68203 | 21060 ft | 428 kts | 113° |
| 2026-05-04 04:59 | 25.39608 | 50.71233 | 20653 ft | 421 kts | 113° |
| 2026-05-04 04:59 | 25.38533 | 50.74218 | 20169 ft | 416 kts | 112° |
| 2026-05-04 04:59 | 25.37475 | 50.77176 | 19796 ft | 412 kts | 112° |
| 2026-05-04 04:59 | 25.36427 | 50.80113 | 19367 ft | 410 kts | 112° |
| 2026-05-04 05:00 | 25.35384 | 50.83044 | 18924 ft | 409 kts | 112° |
| 2026-05-04 05:00 | 25.34346 | 50.85963 | 18493 ft | 407 kts | 112° |
| 2026-05-04 05:00 | 25.32285 | 50.91761 | 17562 ft | 403 kts | 111° |
| 2026-05-04 05:01 | 25.31262 | 50.94635 | 17078 ft | 400 kts | 111° |
| 2026-05-04 05:01 | 25.30249 | 50.97483 | 16609 ft | 397 kts | 111° |
| 2026-05-04 05:01 | 25.29244 | 51.00303 | 16140 ft | 393 kts | 111° |
| 2026-05-04 05:01 | 25.28245 | 51.03107 | 15589 ft | 392 kts | 111° |
| 2026-05-04 05:02 | 25.27275 | 51.05906 | 14879 ft | 385 kts | 108° |
| 2026-05-04 05:02 | 25.26811 | 51.08817 | 14198 ft | 386 kts | 91° |
| 2026-05-04 05:02 | 25.26815 | 51.11786 | 13505 ft | 387 kts | 88° |
| 2026-05-04 05:02 | 25.26871 | 51.14707 | 12754 ft | 382 kts | 88° |
| 2026-05-04 05:03 | 25.26919 | 51.17606 | 12015 ft | 372 kts | 88° |
| 2026-05-04 05:03 | 25.26959 | 51.20434 | 11305 ft | 364 kts | 88° |
| 2026-05-04 05:04 | 25.26431 | 51.28419 | 9834 ft | 327 kts | 101° |
| 2026-05-04 05:04 | 25.25910 | 51.30818 | 9417 ft | 316 kts | 101° |
| 2026-05-04 05:04 | 25.25407 | 51.33139 | 9033 ft | 306 kts | 101° |
| 2026-05-04 05:06 | 25.21126 | 51.48620 | 6925 ft | 297 kts | 144° |
| 2026-05-04 05:06 | 25.19331 | 51.49684 | 6648 ft | 292 kts | 161° |
| 2026-05-04 05:06 | 25.17414 | 51.50499 | 6348 ft | 291 kts | 162° |
| 2026-05-04 05:07 | 25.15530 | 51.51300 | 6111 ft | 290 kts | 160° |
| 2026-05-04 05:07 | 25.13642 | 51.52109 | 5799 ft | 298 kts | 159° |
| 2026-05-04 05:07 | 25.11735 | 51.52945 | 5599 ft | 291 kts | 159° |
| 2026-05-04 05:09 | 25.00615 | 51.61769 | 3530 ft | 238 kts | 81° |
| 2026-05-04 05:09 | 25.00871 | 51.63550 | 3501 ft | 234 kts | 73° |
| 2026-05-04 05:10 | 25.01255 | 51.65322 | 3511 ft | 239 kts | 70° |
| 2026-05-04 05:10 | 25.01808 | 51.67050 | 3516 ft | 239 kts | 63° |
| 2026-05-04 05:10 | 25.02550 | 51.68661 | 3503 ft | 233 kts | 43° |
| 2026-05-04 05:10 | 25.03877 | 51.69526 | 3511 ft | 218 kts | 6° |
| 2026-05-04 05:11 | 25.05359 | 51.69437 | 3504 ft | 210 kts | 343° |
| 2026-05-04 05:11 | 25.06683 | 51.68883 | 3500 ft | 197 kts | 334° |
| 2026-05-04 05:11 | 25.07888 | 51.68310 | 3506 ft | 181 kts | 336° |
| 2026-05-04 05:11 | 25.09036 | 51.67806 | 3374 ft | 174 kts | 337° |
| 2026-05-04 05:12 | 25.10149 | 51.67331 | 3141 ft | 170 kts | 337° |
| 2026-05-04 05:12 | 25.11235 | 51.66852 | 2896 ft | 166 kts | 337° |
| 2026-05-04 05:12 | 25.12294 | 51.66383 | 2676 ft | 162 kts | 337° |
| 2026-05-04 05:12 | 25.13329 | 51.65928 | 2474 ft | 159 kts | 338° |
| 2026-05-04 05:13 | 25.14345 | 51.65481 | 2271 ft | 156 kts | 338° |
| 2026-05-04 05:13 | 25.15348 | 51.65040 | 2072 ft | 154 kts | 337° |
| 2026-05-04 05:13 | 25.16334 | 51.64606 | 1876 ft | 152 kts | 337° |
| 2026-05-04 05:13 | 25.17322 | 51.64170 | 1681 ft | 153 kts | 337° |
| 2026-05-04 05:14 | 25.18310 | 51.63734 | 1483 ft | 152 kts | 337° |
| 2026-05-04 05:14 | 25.19288 | 51.63303 | 1281 ft | 151 kts | 337° |
| 2026-05-04 05:14 | 25.20240 | 51.62883 | 1072 ft | 142 kts | 337° |
| 2026-05-04 05:14 | 25.21130 | 51.62490 | 913 ft | 138 kts | 338° |
| 2026-05-04 05:15 | 25.22020 | 51.62099 | 765 ft | 136 kts | 337° |
| 2026-05-04 05:15 | 25.22894 | 51.61712 | 614 ft | 135 kts | 336° |
| 2026-05-04 05:15 | 25.23756 | 51.61324 | 449 ft | 134 kts | 337° |
| 2026-05-04 05:15 | 25.24616 | 51.60953 | 256 ft | 132 kts | 338° |
| 2026-05-04 05:16 | 25.25471 | 51.60582 | 91 ft | 132 kts | 336° |
| 2026-05-04 05:16 | 25.26298 | 51.60213 | 27 ft | 113 kts | 339° |
| 2026-05-04 05:16 | 25.26688 | 51.60042 | 22 ft | 20 kts | 338° |
| 2026-05-04 05:16 | 25.26822 | 51.59982 | 22 ft | 21 kts | 338° |
| 2026-05-04 05:17 | 25.26970 | 51.59956 | 21 ft | 22 kts | 6° |
| 2026-05-04 05:17 | 25.27097 | 51.59978 | 25 ft | 10 kts | 17° |
| 2026-05-04 05:17 | 25.27121 | 51.60032 | 29 ft | 7 kts | 100° |
| 2026-05-04 05:17 | 25.27050 | 51.60088 | 30 ft | 21 kts | 158° |
| 2026-05-04 05:18 | 25.26888 | 51.60162 | 29 ft | 27 kts | 158° |
| 2026-05-04 05:18 | 25.26742 | 51.60226 | 28 ft | 18 kts | 159° |
| 2026-05-04 05:18 | 25.26618 | 51.60279 | 31 ft | 20 kts | 158° |
| 2026-05-04 05:18 | 25.26477 | 51.60340 | 27 ft | 23 kts | 159° |
| 2026-05-04 05:19 | 25.26331 | 51.60405 | 27 ft | 17 kts | 158° |
| 2026-05-04 05:19 | 25.26215 | 51.60457 | 27 ft | 19 kts | 158° |
| 2026-05-04 05:19 | 25.26084 | 51.60518 | 27 ft | 18 kts | 149° |
| 2026-05-04 05:19 | 25.26068 | 51.60632 | 28 ft | 14 kts | 68° |
| 2026-05-04 05:20 | 25.26095 | 51.60704 | 28 ft | 10 kts | 70° |
| 2026-05-04 05:20 | 25.26123 | 51.60783 | 28 ft | 10 kts | 68° |
| 2026-05-04 05:20 | 25.26144 | 51.60842 | 28 ft | 9 kts | 68° |
| 2026-05-04 05:20 | 25.26171 | 51.60915 | 28 ft | 12 kts | 67° |
| 2026-05-04 05:21 | 25.26199 | 51.60996 | 28 ft | 7 kts | 78° |
| 2026-05-04 05:21 | 25.26179 | 51.61026 | 28 ft | 6 kts | 141° |
| 2026-05-04 05:21 | 25.26142 | 51.61047 | 28 ft | 3 kts | 156° |
| 2026-05-04 05:22 | 25.26129 | 51.61053 | 28 ft | 3 kts | 157° |
| 2026-05-04 05:22 | 25.26116 | 51.61059 | 28 ft | 0 kts | 158° |